sensor_id;sensor_type;location;lat;lon;timestamp;pressure;altitude;pressure_sealevel;temperature;humidity
30182;BME280;16990;49.056;9.240;2022-07-17T00:02:19;99538.53;;;16.85;61.64
30182;BME280;16990;49.056;9.240;2022-07-17T00:04:47;99531.19;;;16.80;61.25
30182;BME280;16990;49.056;9.240;2022-07-17T00:07:14;99536.22;;;16.72;61.61
30182;BME280;16990;49.056;9.240;2022-07-17T00:09:41;99536.72;;;16.69;61.67
30182;BME280;16990;49.056;9.240;2022-07-17T00:12:07;99543.72;;;16.65;62.61
30182;BME280;16990;49.056;9.240;2022-07-17T00:14:35;99538.88;;;16.67;62.82
30182;BME280;16990;49.056;9.240;2022-07-17T00:17:02;99523.78;;;16.71;62.53
30182;BME280;16990;49.056;9.240;2022-07-17T00:19:30;99546.84;;;16.56;63.04
30182;BME280;16990;49.056;9.240;2022-07-17T00:21:57;99539.19;;;16.48;63.26
30182;BME280;16990;49.056;9.240;2022-07-17T00:24:24;99533.06;;;16.31;63.08
30182;BME280;16990;49.056;9.240;2022-07-17T00:26:51;99534.31;;;16.23;64.41
30182;BME280;16990;49.056;9.240;2022-07-17T00:29:19;99540.53;;;16.46;63.37
30182;BME280;16990;49.056;9.240;2022-07-17T00:31:47;99541.84;;;16.43;63.03
30182;BME280;16990;49.056;9.240;2022-07-17T00:34:14;99543.31;;;16.29;63.38
30182;BME280;16990;49.056;9.240;2022-07-17T00:36:41;99542.28;;;16.13;64.17
30182;BME280;16990;49.056;9.240;2022-07-17T00:39:08;99543.47;;;16.00;64.83
30182;BME280;16990;49.056;9.240;2022-07-17T00:41:35;99539.63;;;15.96;65.19
30182;BME280;16990;49.056;9.240;2022-07-17T00:44:06;99545.03;;;15.96;65.23
30182;BME280;16990;49.056;9.240;2022-07-17T00:46:33;99542.31;;;15.96;65.02
30182;BME280;16990;49.056;9.240;2022-07-17T00:49:02;99540.19;;;15.98;64.73
30182;BME280;16990;49.056;9.240;2022-07-17T00:51:29;99534.41;;;15.89;64.58
30182;BME280;16990;49.056;9.240;2022-07-17T00:53:57;99545.53;;;15.93;64.13
30182;BME280;16990;49.056;9.240;2022-07-17T00:56:24;99541.53;;;15.95;64.20
30182;BME280;16990;49.056;9.240;2022-07-17T00:58:51;99541.84;;;15.82;64.81
30182;BME280;16990;49.056;9.240;2022-07-17T01:01:18;99538.22;;;15.71;65.31
30182;BME280;16990;49.056;9.240;2022-07-17T01:03:45;99535.81;;;15.75;65.21
30182;BME280;16990;49.056;9.240;2022-07-17T01:06:13;99541.38;;;15.68;65.78
30182;BME280;16990;49.056;9.240;2022-07-17T01:08:40;99540.31;;;15.69;65.75
30182;BME280;16990;49.056;9.240;2022-07-17T01:11:08;99541.22;;;15.75;65.57
30182;BME280;16990;49.056;9.240;2022-07-17T01:13:35;99540.75;;;15.78;65.13
30182;BME280;16990;49.056;9.240;2022-07-17T01:16:02;99547.94;;;15.72;65.33
30182;BME280;16990;49.056;9.240;2022-07-17T01:18:29;99553.97;;;15.80;64.56
30182;BME280;16990;49.056;9.240;2022-07-17T01:21:03;99562.31;;;15.61;65.32
30182;BME280;16990;49.056;9.240;2022-07-17T01:23:30;99550.53;;;15.67;65.34
30182;BME280;16990;49.056;9.240;2022-07-17T01:25:56;99552.63;;;15.65;65.32
30182;BME280;16990;49.056;9.240;2022-07-17T01:28:23;99558.22;;;15.59;65.13
30182;BME280;16990;49.056;9.240;2022-07-17T01:30:51;99561.66;;;15.71;65.19
30182;BME280;16990;49.056;9.240;2022-07-17T01:33:19;99555.84;;;15.62;65.34
30182;BME280;16990;49.056;9.240;2022-07-17T01:35:46;99554.69;;;15.41;65.82
30182;BME280;16990;49.056;9.240;2022-07-17T01:38:14;99565.38;;;15.19;67.09
30182;BME280;16990;49.056;9.240;2022-07-17T01:40:40;99552.97;;;15.01;67.74
30182;BME280;16990;49.056;9.240;2022-07-17T01:43:07;99559.63;;;14.99;67.91
30182;BME280;16990;49.056;9.240;2022-07-17T01:45:33;99562.91;;;15.01;68.08
30182;BME280;16990;49.056;9.240;2022-07-17T01:48:01;99555.50;;;15.08;67.79
30182;BME280;16990;49.056;9.240;2022-07-17T01:50:27;99559.34;;;15.12;67.78
30182;BME280;16990;49.056;9.240;2022-07-17T01:52:54;99552.56;;;15.09;67.80
30182;BME280;16990;49.056;9.240;2022-07-17T01:55:22;99554.53;;;15.14;68.19
30182;BME280;16990;49.056;9.240;2022-07-17T01:57:49;99535.53;;;15.21;67.65
30182;BME280;16990;49.056;9.240;2022-07-17T02:00:17;99540.66;;;15.22;67.66
30182;BME280;16990;49.056;9.240;2022-07-17T02:02:45;99536.91;;;15.23;67.35
30182;BME280;16990;49.056;9.240;2022-07-17T02:05:12;99541.16;;;15.19;67.27
30182;BME280;16990;49.056;9.240;2022-07-17T02:07:39;99532.00;;;15.20;66.98
30182;BME280;16990;49.056;9.240;2022-07-17T02:10:08;99541.06;;;15.14;67.32
30182;BME280;16990;49.056;9.240;2022-07-17T02:12:36;99540.69;;;14.94;67.38
30182;BME280;16990;49.056;9.240;2022-07-17T02:15:04;99546.06;;;14.77;68.09
30182;BME280;16990;49.056;9.240;2022-07-17T02:17:30;99544.19;;;14.77;68.20
30182;BME280;16990;49.056;9.240;2022-07-17T02:19:57;99536.72;;;14.67;68.88
30182;BME280;16990;49.056;9.240;2022-07-17T02:22:24;99539.69;;;14.66;69.23
30182;BME280;16990;49.056;9.240;2022-07-17T02:24:50;99540.72;;;14.65;68.61
30182;BME280;16990;49.056;9.240;2022-07-17T02:27:17;99546.81;;;14.60;68.06
30182;BME280;16990;49.056;9.240;2022-07-17T02:29:45;99547.56;;;14.44;68.69
30182;BME280;16990;49.056;9.240;2022-07-17T02:32:11;99547.09;;;14.47;68.91
30182;BME280;16990;49.056;9.240;2022-07-17T02:34:38;99547.44;;;14.39;70.01
30182;BME280;16990;49.056;9.240;2022-07-17T02:37:04;99539.06;;;14.35;70.08
30182;BME280;16990;49.056;9.240;2022-07-17T02:39:31;99539.38;;;14.39;70.32
30182;BME280;16990;49.056;9.240;2022-07-17T02:41:58;99534.84;;;14.39;70.62
30182;BME280;16990;49.056;9.240;2022-07-17T02:44:24;99538.56;;;14.38;70.65
30182;BME280;16990;49.056;9.240;2022-07-17T02:46:52;99529.09;;;14.36;70.59
30182;BME280;16990;49.056;9.240;2022-07-17T02:49:19;99535.03;;;14.50;69.93
30182;BME280;16990;49.056;9.240;2022-07-17T02:51:46;99528.56;;;14.51;70.03
30182;BME280;16990;49.056;9.240;2022-07-17T02:54:12;99531.75;;;14.47;70.08
30182;BME280;16990;49.056;9.240;2022-07-17T02:56:39;99530.59;;;14.43;70.25
30182;BME280;16990;49.056;9.240;2022-07-17T02:59:05;99532.50;;;14.31;70.53
30182;BME280;16990;49.056;9.240;2022-07-17T03:01:32;99526.66;;;14.34;70.50
30182;BME280;16990;49.056;9.240;2022-07-17T03:04:00;99540.00;;;14.29;71.20
30182;BME280;16990;49.056;9.240;2022-07-17T03:06:26;99534.28;;;14.25;70.85
30182;BME280;16990;49.056;9.240;2022-07-17T03:08:53;99534.06;;;14.27;70.60
30182;BME280;16990;49.056;9.240;2022-07-17T03:11:20;99532.41;;;14.26;70.13
30182;BME280;16990;49.056;9.240;2022-07-17T03:13:46;99525.53;;;14.18;70.92
30182;BME280;16990;49.056;9.240;2022-07-17T03:16:13;99533.81;;;14.17;70.69
30182;BME280;16990;49.056;9.240;2022-07-17T03:18:39;99530.00;;;14.13;70.72
30182;BME280;16990;49.056;9.240;2022-07-17T03:21:07;99536.53;;;14.05;71.15
30182;BME280;16990;49.056;9.240;2022-07-17T03:23:34;99546.38;;;13.99;71.48
30182;BME280;16990;49.056;9.240;2022-07-17T03:26:01;99528.47;;;13.93;71.07
30182;BME280;16990;49.056;9.240;2022-07-17T03:28:27;99543.22;;;13.91;71.42
30182;BME280;16990;49.056;9.240;2022-07-17T03:30:54;99541.38;;;13.91;71.82
30182;BME280;16990;49.056;9.240;2022-07-17T03:33:20;99551.41;;;13.96;71.75
30182;BME280;16990;49.056;9.240;2022-07-17T03:35:47;99545.69;;;13.92;71.81
30182;BME280;16990;49.056;9.240;2022-07-17T03:38:15;99535.53;;;13.82;71.94
30182;BME280;16990;49.056;9.240;2022-07-17T03:40:42;99544.28;;;13.78;71.87
30182;BME280;16990;49.056;9.240;2022-07-17T03:43:08;99537.84;;;13.79;72.21
30182;BME280;16990;49.056;9.240;2022-07-17T03:45:35;99548.59;;;13.79;72.28
30182;BME280;16990;49.056;9.240;2022-07-17T03:48:02;99545.91;;;13.79;72.52
30182;BME280;16990;49.056;9.240;2022-07-17T03:50:28;99546.28;;;13.71;72.27
30182;BME280;16990;49.056;9.240;2022-07-17T03:52:55;99541.59;;;13.78;72.68
30182;BME280;16990;49.056;9.240;2022-07-17T03:55:23;99533.66;;;13.83;71.79
30182;BME280;16990;49.056;9.240;2022-07-17T03:57:49;99534.25;;;13.73;72.40
30182;BME280;16990;49.056;9.240;2022-07-17T04:00:16;99532.63;;;13.84;71.74
30182;BME280;16990;49.056;9.240;2022-07-17T04:02:43;99542.19;;;13.80;72.17
30182;BME280;16990;49.056;9.240;2022-07-17T04:05:10;99538.69;;;13.91;71.08
30182;BME280;16990;49.056;9.240;2022-07-17T04:07:37;99535.75;;;13.69;72.07
30182;BME280;16990;49.056;9.240;2022-07-17T04:10:05;99543.81;;;13.81;71.78
30182;BME280;16990;49.056;9.240;2022-07-17T04:12:34;99548.25;;;13.64;72.70
30182;BME280;16990;49.056;9.240;2022-07-17T04:15:02;99547.78;;;13.67;72.63
30182;BME280;16990;49.056;9.240;2022-07-17T04:17:28;99547.78;;;13.67;72.91
30182;BME280;16990;49.056;9.240;2022-07-17T04:19:55;99550.47;;;13.78;72.19
30182;BME280;16990;49.056;9.240;2022-07-17T04:22:22;99549.75;;;14.07;71.52
30182;BME280;16990;49.056;9.240;2022-07-17T04:24:49;99551.22;;;14.26;70.54
30182;BME280;16990;49.056;9.240;2022-07-17T04:27:17;99555.66;;;14.32;69.94
30182;BME280;16990;49.056;9.240;2022-07-17T04:29:45;99552.13;;;14.32;69.78
30182;BME280;16990;49.056;9.240;2022-07-17T04:32:11;99560.09;;;14.38;69.42
30182;BME280;16990;49.056;9.240;2022-07-17T04:34:38;99566.19;;;14.22;70.69
30182;BME280;16990;49.056;9.240;2022-07-17T04:37:04;99559.19;;;14.21;69.91
30182;BME280;16990;49.056;9.240;2022-07-17T04:39:31;99556.75;;;14.19;69.92
30182;BME280;16990;49.056;9.240;2022-07-17T04:41:58;99559.69;;;14.18;69.66
30182;BME280;16990;49.056;9.240;2022-07-17T04:44:24;99568.19;;;14.26;69.27
30182;BME280;16990;49.056;9.240;2022-07-17T04:46:52;99561.50;;;14.29;69.72
30182;BME280;16990;49.056;9.240;2022-07-17T04:49:20;99570.66;;;14.28;70.51
30182;BME280;16990;49.056;9.240;2022-07-17T04:51:47;99564.78;;;14.31;70.03
30182;BME280;16990;49.056;9.240;2022-07-17T04:54:13;99558.38;;;14.32;69.17
30182;BME280;16990;49.056;9.240;2022-07-17T04:56:40;99566.88;;;14.29;68.61
30182;BME280;16990;49.056;9.240;2022-07-17T04:59:07;99564.31;;;14.34;68.80
30182;BME280;16990;49.056;9.240;2022-07-17T05:01:33;99558.16;;;14.51;68.08
30182;BME280;16990;49.056;9.240;2022-07-17T05:04:01;99563.22;;;14.87;67.12
30182;BME280;16990;49.056;9.240;2022-07-17T05:06:29;99554.78;;;15.29;65.83
30182;BME280;16990;49.056;9.240;2022-07-17T05:08:56;99564.28;;;15.83;63.71
30182;BME280;16990;49.056;9.240;2022-07-17T05:11:23;99550.25;;;16.25;62.38
30182;BME280;16990;49.056;9.240;2022-07-17T05:13:50;99563.03;;;16.56;61.10
30182;BME280;16990;49.056;9.240;2022-07-17T05:16:17;99558.53;;;16.84;60.11
30182;BME280;16990;49.056;9.240;2022-07-17T05:18:43;99554.91;;;17.00;59.20
30182;BME280;16990;49.056;9.240;2022-07-17T05:21:11;99569.03;;;17.08;58.79
30182;BME280;16990;49.056;9.240;2022-07-17T05:23:39;99557.50;;;17.17;58.69
30182;BME280;16990;49.056;9.240;2022-07-17T05:26:06;99558.34;;;17.23;58.85
30182;BME280;16990;49.056;9.240;2022-07-17T05:28:33;99562.84;;;17.44;57.66
30182;BME280;16990;49.056;9.240;2022-07-17T05:30:59;99559.94;;;17.51;57.85
30182;BME280;16990;49.056;9.240;2022-07-17T05:33:26;99562.97;;;17.60;57.24
30182;BME280;16990;49.056;9.240;2022-07-17T05:35:52;99557.00;;;17.58;57.21
30182;BME280;16990;49.056;9.240;2022-07-17T05:38:20;99557.25;;;17.56;56.79
30182;BME280;16990;49.056;9.240;2022-07-17T05:40:47;99563.88;;;17.38;57.67
30182;BME280;16990;49.056;9.240;2022-07-17T05:43:14;99561.22;;;17.43;57.32
30182;BME280;16990;49.056;9.240;2022-07-17T05:45:40;99563.28;;;17.31;57.54
30182;BME280;16990;49.056;9.240;2022-07-17T05:48:07;99567.06;;;17.30;58.16
30182;BME280;16990;49.056;9.240;2022-07-17T05:50:34;99563.94;;;17.43;57.53
30182;BME280;16990;49.056;9.240;2022-07-17T05:53:01;99568.84;;;17.52;57.04
30182;BME280;16990;49.056;9.240;2022-07-17T05:55:29;99581.31;;;17.53;57.11
30182;BME280;16990;49.056;9.240;2022-07-17T05:57:56;99577.78;;;17.57;56.99
30182;BME280;16990;49.056;9.240;2022-07-17T06:00:22;99578.13;;;17.61;56.68
30182;BME280;16990;49.056;9.240;2022-07-17T06:02:49;99575.50;;;17.76;56.20
30182;BME280;16990;49.056;9.240;2022-07-17T06:05:16;99573.72;;;17.55;57.00
30182;BME280;16990;49.056;9.240;2022-07-17T06:07:42;99580.72;;;17.46;57.16
30182;BME280;16990;49.056;9.240;2022-07-17T06:10:11;99578.13;;;17.61;56.22
30182;BME280;16990;49.056;9.240;2022-07-17T06:12:39;99583.00;;;17.64;56.16
30182;BME280;16990;49.056;9.240;2022-07-17T06:15:06;99586.88;;;17.78;56.67
30182;BME280;16990;49.056;9.240;2022-07-17T06:17:33;99586.84;;;17.73;58.02
30182;BME280;16990;49.056;9.240;2022-07-17T06:20:00;99589.78;;;17.34;59.79
30182;BME280;16990;49.056;9.240;2022-07-17T06:22:26;99589.00;;;17.34;60.45
30182;BME280;16990;49.056;9.240;2022-07-17T06:24:53;99602.94;;;17.53;59.42
30182;BME280;16990;49.056;9.240;2022-07-17T06:27:20;99598.84;;;17.82;58.90
30182;BME280;16990;49.056;9.240;2022-07-17T06:29:48;99593.03;;;18.01;57.69
30182;BME280;16990;49.056;9.240;2022-07-17T06:32:14;99600.63;;;18.09;56.41
30182;BME280;16990;49.056;9.240;2022-07-17T06:34:41;99596.03;;;18.10;55.94
30182;BME280;16990;49.056;9.240;2022-07-17T06:37:08;99592.06;;;18.22;56.18
30182;BME280;16990;49.056;9.240;2022-07-17T06:39:35;99600.56;;;18.46;56.30
30182;BME280;16990;49.056;9.240;2022-07-17T06:42:02;99596.88;;;18.73;53.93
30182;BME280;16990;49.056;9.240;2022-07-17T06:44:28;99602.28;;;18.68;53.36
30182;BME280;16990;49.056;9.240;2022-07-17T06:46:57;99599.88;;;18.77;53.50
30182;BME280;16990;49.056;9.240;2022-07-17T06:49:23;99597.75;;;18.89;52.04
30182;BME280;16990;49.056;9.240;2022-07-17T06:51:50;99605.38;;;19.07;52.39
30182;BME280;16990;49.056;9.240;2022-07-17T06:54:17;99605.91;;;18.94;51.72
30182;BME280;16990;49.056;9.240;2022-07-17T06:56:44;99601.88;;;19.22;50.96
30182;BME280;16990;49.056;9.240;2022-07-17T06:59:10;99602.16;;;19.36;50.88
30182;BME280;16990;49.056;9.240;2022-07-17T07:01:37;99599.44;;;19.36;50.46
30182;BME280;16990;49.056;9.240;2022-07-17T07:04:05;99605.69;;;19.37;50.75
30182;BME280;16990;49.056;9.240;2022-07-17T07:06:32;99610.03;;;19.48;50.28
30182;BME280;16990;49.056;9.240;2022-07-17T07:08:59;99609.78;;;19.54;49.64
30182;BME280;16990;49.056;9.240;2022-07-17T07:11:26;99614.63;;;19.63;49.32
30182;BME280;16990;49.056;9.240;2022-07-17T07:13:52;99613.56;;;19.89;48.53
30182;BME280;16990;49.056;9.240;2022-07-17T07:16:19;99608.41;;;19.98;48.80
30182;BME280;16990;49.056;9.240;2022-07-17T07:18:46;99610.84;;;19.94;48.24
30182;BME280;16990;49.056;9.240;2022-07-17T07:21:14;99615.16;;;20.21;47.33
30182;BME280;16990;49.056;9.240;2022-07-17T07:23:41;99612.94;;;20.33;46.37
30182;BME280;16990;49.056;9.240;2022-07-17T07:26:07;99622.97;;;20.28;46.87
30182;BME280;16990;49.056;9.240;2022-07-17T07:28:34;99618.78;;;20.71;46.86
30182;BME280;16990;49.056;9.240;2022-07-17T07:31:01;99614.72;;;20.74;47.26
30182;BME280;16990;49.056;9.240;2022-07-17T07:33:27;99619.34;;;20.63;46.78
30182;BME280;16990;49.056;9.240;2022-07-17T07:35:54;99614.50;;;20.45;47.32
30182;BME280;16990;49.056;9.240;2022-07-17T07:38:22;99622.28;;;20.77;47.03
30182;BME280;16990;49.056;9.240;2022-07-17T07:40:49;99618.59;;;21.07;45.85
30182;BME280;16990;49.056;9.240;2022-07-17T07:43:15;99615.47;;;21.29;45.00
30182;BME280;16990;49.056;9.240;2022-07-17T07:45:42;99605.34;;;21.40;43.98
30182;BME280;16990;49.056;9.240;2022-07-17T07:48:09;99615.13;;;21.75;42.75
30182;BME280;16990;49.056;9.240;2022-07-17T07:50:36;99615.88;;;21.81;43.06
30182;BME280;16990;49.056;9.240;2022-07-17T07:53:02;99613.78;;;22.02;43.72
30182;BME280;16990;49.056;9.240;2022-07-17T07:55:30;99607.75;;;22.34;42.54
30182;BME280;16990;49.056;9.240;2022-07-17T07:58:04;99613.22;;;22.29;42.26
30182;BME280;16990;49.056;9.240;2022-07-17T08:00:31;99608.16;;;22.46;41.21
30182;BME280;16990;49.056;9.240;2022-07-17T08:02:58;99602.84;;;22.31;40.93
30182;BME280;16990;49.056;9.240;2022-07-17T08:05:24;99603.06;;;22.11;41.69
30182;BME280;16990;49.056;9.240;2022-07-17T08:07:51;99602.00;;;22.06;42.01
30182;BME280;16990;49.056;9.240;2022-07-17T08:10:18;99595.91;;;22.20;42.26
30182;BME280;16990;49.056;9.240;2022-07-17T08:12:46;99601.25;;;22.30;41.42
30182;BME280;16990;49.056;9.240;2022-07-17T08:15:14;99603.22;;;22.24;41.76
30182;BME280;16990;49.056;9.240;2022-07-17T08:17:41;99599.69;;;22.67;41.61
30182;BME280;16990;49.056;9.240;2022-07-17T08:20:09;99601.00;;;23.12;40.49
30182;BME280;16990;49.056;9.240;2022-07-17T08:22:35;99616.09;;;23.43;39.64
30182;BME280;16990;49.056;9.240;2022-07-17T08:25:02;99603.13;;;23.67;38.75
30182;BME280;16990;49.056;9.240;2022-07-17T08:27:34;99600.00;;;23.93;37.65
30182;BME280;16990;49.056;9.240;2022-07-17T08:30:03;99616.59;;;24.10;37.85
30182;BME280;16990;49.056;9.240;2022-07-17T08:32:30;99614.09;;;24.14;37.51
30182;BME280;16990;49.056;9.240;2022-07-17T08:34:57;99596.19;;;23.75;36.96
30182;BME280;16990;49.056;9.240;2022-07-17T08:37:24;99615.97;;;23.15;38.65
30182;BME280;16990;49.056;9.240;2022-07-17T08:39:51;99609.94;;;23.18;39.93
30182;BME280;16990;49.056;9.240;2022-07-17T08:42:18;99603.28;;;23.24;39.47
30182;BME280;16990;49.056;9.240;2022-07-17T08:44:45;99601.84;;;23.46;38.35
30182;BME280;16990;49.056;9.240;2022-07-17T08:47:14;99599.59;;;23.15;38.57
30182;BME280;16990;49.056;9.240;2022-07-17T08:49:44;99610.03;;;23.46;38.91
30182;BME280;16990;49.056;9.240;2022-07-17T08:52:11;99613.53;;;23.65;38.54
30182;BME280;16990;49.056;9.240;2022-07-17T08:54:39;99610.81;;;23.65;37.41
30182;BME280;16990;49.056;9.240;2022-07-17T08:57:06;99607.56;;;23.63;38.72
30182;BME280;16990;49.056;9.240;2022-07-17T08:59:34;99600.06;;;23.74;38.51
30182;BME280;16990;49.056;9.240;2022-07-17T09:02:03;99615.09;;;24.04;37.91
30182;BME280;16990;49.056;9.240;2022-07-17T09:04:32;99605.81;;;24.33;36.41
30182;BME280;16990;49.056;9.240;2022-07-17T09:06:59;99595.06;;;24.23;35.06
30182;BME280;16990;49.056;9.240;2022-07-17T09:09:27;99610.97;;;24.48;34.88
30182;BME280;16990;49.056;9.240;2022-07-17T09:11:54;99611.28;;;24.47;35.40
30182;BME280;16990;49.056;9.240;2022-07-17T09:14:21;99604.47;;;24.44;35.30
30182;BME280;16990;49.056;9.240;2022-07-17T09:16:50;99619.94;;;24.35;35.74
30182;BME280;16990;49.056;9.240;2022-07-17T09:19:25;99608.13;;;24.53;35.52
30182;BME280;16990;49.056;9.240;2022-07-17T09:22:03;99607.38;;;24.06;35.92
30182;BME280;16990;49.056;9.240;2022-07-17T09:24:39;99594.66;;;24.29;35.20
30182;BME280;16990;49.056;9.240;2022-07-17T09:27:06;99605.56;;;23.88;35.29
30182;BME280;16990;49.056;9.240;2022-07-17T09:29:33;99590.16;;;23.92;35.49
30182;BME280;16990;49.056;9.240;2022-07-17T09:31:59;99587.09;;;23.80;33.99
30182;BME280;16990;49.056;9.240;2022-07-17T09:34:26;99591.28;;;23.91;34.84
30182;BME280;16990;49.056;9.240;2022-07-17T09:36:59;99590.81;;;24.16;34.23
30182;BME280;16990;49.056;9.240;2022-07-17T09:39:34;99588.38;;;24.15;34.03
30182;BME280;16990;49.056;9.240;2022-07-17T09:42:01;99585.75;;;24.10;33.84
30182;BME280;16990;49.056;9.240;2022-07-17T09:44:27;99577.44;;;24.70;34.15
30182;BME280;16990;49.056;9.240;2022-07-17T09:46:54;99592.81;;;24.80;32.83
30182;BME280;16990;49.056;9.240;2022-07-17T09:49:26;99579.13;;;24.80;33.47
30182;BME280;16990;49.056;9.240;2022-07-17T09:51:53;99583.50;;;25.17;33.17
30182;BME280;16990;49.056;9.240;2022-07-17T09:54:22;99595.75;;;25.65;32.42
30182;BME280;16990;49.056;9.240;2022-07-17T09:56:50;99584.00;;;25.64;31.60
30182;BME280;16990;49.056;9.240;2022-07-17T09:59:18;99585.13;;;25.41;31.52
30182;BME280;16990;49.056;9.240;2022-07-17T10:01:45;99577.50;;;25.29;31.73
30182;BME280;16990;49.056;9.240;2022-07-17T10:04:15;99578.41;;;25.70;32.24
30182;BME280;16990;49.056;9.240;2022-07-17T10:06:43;99592.50;;;26.17;31.18
30182;BME280;16990;49.056;9.240;2022-07-17T10:09:09;99582.16;;;25.82;30.46
30182;BME280;16990;49.056;9.240;2022-07-17T10:11:39;99585.88;;;25.55;30.60
30182;BME280;16990;49.056;9.240;2022-07-17T10:14:09;99581.44;;;25.68;31.77
30182;BME280;16990;49.056;9.240;2022-07-17T10:16:37;99580.16;;;25.97;30.59
30182;BME280;16990;49.056;9.240;2022-07-17T10:19:15;99576.03;;;26.17;30.60
30182;BME280;16990;49.056;9.240;2022-07-17T10:21:52;99569.38;;;26.49;29.54
30182;BME280;16990;49.056;9.240;2022-07-17T10:24:20;99572.34;;;26.21;29.78
30182;BME280;16990;49.056;9.240;2022-07-17T10:26:48;99573.50;;;25.58;30.81
30182;BME280;16990;49.056;9.240;2022-07-17T10:29:33;99563.47;;;25.84;30.90
30182;BME280;16990;49.056;9.240;2022-07-17T10:32:00;99570.63;;;26.43;29.80
30182;BME280;16990;49.056;9.240;2022-07-17T10:34:42;99560.63;;;26.38;29.74
30182;BME280;16990;49.056;9.240;2022-07-17T10:37:20;99563.16;;;26.83;29.91
30182;BME280;16990;49.056;9.240;2022-07-17T10:40:02;99560.44;;;26.75;29.73
30182;BME280;16990;49.056;9.240;2022-07-17T10:42:51;99567.50;;;26.76;29.06
30182;BME280;16990;49.056;9.240;2022-07-17T10:45:19;99558.16;;;26.94;29.14
30182;BME280;16990;49.056;9.240;2022-07-17T10:47:49;99556.41;;;27.15;28.35
30182;BME280;16990;49.056;9.240;2022-07-17T10:50:17;99554.63;;;27.20;28.91
30182;BME280;16990;49.056;9.240;2022-07-17T10:52:56;99560.44;;;26.75;29.17
30182;BME280;16990;49.056;9.240;2022-07-17T10:55:23;99555.22;;;26.64;28.96
30182;BME280;16990;49.056;9.240;2022-07-17T10:57:51;99548.78;;;26.60;29.97
30182;BME280;16990;49.056;9.240;2022-07-17T11:00:18;99562.06;;;27.28;28.94
30182;BME280;16990;49.056;9.240;2022-07-17T11:02:45;99551.34;;;27.52;27.99
30182;BME280;16990;49.056;9.240;2022-07-17T11:05:13;99546.44;;;27.75;27.26
30182;BME280;16990;49.056;9.240;2022-07-17T11:07:55;99544.31;;;27.90;27.05
30182;BME280;16990;49.056;9.240;2022-07-17T11:10:26;99546.19;;;28.07;26.46
30182;BME280;16990;49.056;9.240;2022-07-17T11:12:55;99527.66;;;27.86;27.38
30182;BME280;16990;49.056;9.240;2022-07-17T11:15:38;99533.66;;;28.18;27.52
30182;BME280;16990;49.056;9.240;2022-07-17T11:18:10;99538.72;;;28.16;26.70
30182;BME280;16990;49.056;9.240;2022-07-17T11:20:46;99534.81;;;28.47;26.67
30182;BME280;16990;49.056;9.240;2022-07-17T11:23:13;99545.44;;;28.57;26.44
30182;BME280;16990;49.056;9.240;2022-07-17T11:25:51;99548.34;;;28.22;25.61
30182;BME280;16990;49.056;9.240;2022-07-17T11:28:37;99548.84;;;28.24;26.27
30182;BME280;16990;49.056;9.240;2022-07-17T11:31:15;99526.59;;;28.38;25.97
30182;BME280;16990;49.056;9.240;2022-07-17T11:33:49;99537.38;;;28.73;25.32
30182;BME280;16990;49.056;9.240;2022-07-17T11:36:24;99538.97;;;28.95;25.79
30182;BME280;16990;49.056;9.240;2022-07-17T11:38:52;99541.38;;;28.25;26.27
30182;BME280;16990;49.056;9.240;2022-07-17T11:41:19;99535.84;;;28.33;26.16
30182;BME280;16990;49.056;9.240;2022-07-17T11:43:47;99530.63;;;28.40;26.53
30182;BME280;16990;49.056;9.240;2022-07-17T11:46:14;99526.09;;;28.66;25.63
30182;BME280;16990;49.056;9.240;2022-07-17T11:48:42;99526.38;;;28.94;25.21
30182;BME280;16990;49.056;9.240;2022-07-17T11:51:09;99522.06;;;29.26;24.71
30182;BME280;16990;49.056;9.240;2022-07-17T11:53:38;99522.94;;;29.51;24.74
30182;BME280;16990;49.056;9.240;2022-07-17T11:56:06;99508.09;;;29.43;23.90
30182;BME280;16990;49.056;9.240;2022-07-17T11:58:44;99521.69;;;29.15;23.77
30182;BME280;16990;49.056;9.240;2022-07-17T12:01:13;99518.03;;;29.02;25.39
30182;BME280;16990;49.056;9.240;2022-07-17T12:03:40;99525.59;;;29.14;24.20
30182;BME280;16990;49.056;9.240;2022-07-17T12:06:07;99518.75;;;28.78;24.43
30182;BME280;16990;49.056;9.240;2022-07-17T12:08:34;99521.63;;;28.31;26.18
30182;BME280;16990;49.056;9.240;2022-07-17T12:11:04;99518.19;;;28.85;25.39
30182;BME280;16990;49.056;9.240;2022-07-17T12:13:38;99528.66;;;28.92;24.22
30182;BME280;16990;49.056;9.240;2022-07-17T12:16:21;99527.72;;;28.88;24.57
30182;BME280;16990;49.056;9.240;2022-07-17T12:19:03;99525.38;;;28.98;24.43
30182;BME280;16990;49.056;9.240;2022-07-17T12:21:32;99521.59;;;29.03;24.03
30182;BME280;16990;49.056;9.240;2022-07-17T12:24:02;99519.72;;;28.95;23.57
30182;BME280;16990;49.056;9.240;2022-07-17T12:26:29;99506.09;;;28.98;24.00
30182;BME280;16990;49.056;9.240;2022-07-17T12:28:56;99512.06;;;29.21;23.56
30182;BME280;16990;49.056;9.240;2022-07-17T12:31:25;99508.91;;;28.90;23.66
30182;BME280;16990;49.056;9.240;2022-07-17T12:33:53;99506.50;;;29.09;24.35
30182;BME280;16990;49.056;9.240;2022-07-17T12:36:20;99503.22;;;29.28;24.34
30182;BME280;16990;49.056;9.240;2022-07-17T12:38:47;99513.63;;;29.56;23.20
30182;BME280;16990;49.056;9.240;2022-07-17T12:41:14;99516.38;;;29.43;23.46
30182;BME280;16990;49.056;9.240;2022-07-17T12:43:41;99519.25;;;29.59;22.63
30182;BME280;16990;49.056;9.240;2022-07-17T12:46:08;99511.22;;;29.54;22.19
30182;BME280;16990;49.056;9.240;2022-07-17T12:48:36;99512.28;;;29.62;22.69
30182;BME280;16990;49.056;9.240;2022-07-17T12:51:05;99518.34;;;29.55;22.93
30182;BME280;16990;49.056;9.240;2022-07-17T12:53:33;99520.59;;;29.86;22.33
30182;BME280;16990;49.056;9.240;2022-07-17T12:56:00;99503.47;;;29.81;22.02
30182;BME280;16990;49.056;9.240;2022-07-17T12:58:27;99510.38;;;29.87;21.80
30182;BME280;16990;49.056;9.240;2022-07-17T13:00:53;99504.63;;;29.67;21.66
30182;BME280;16990;49.056;9.240;2022-07-17T13:03:20;99509.81;;;29.81;22.82
30182;BME280;16990;49.056;9.240;2022-07-17T13:05:48;99505.09;;;30.06;22.59